Time;durP1;ratioP1;P1;durP2;ratioP2;P2;SDS_P1;SDS_P2;PMS_P1;PMS_P2;Temp;Humidity;BMP_temperature;BMP_pressure;BME280_temperature;BME280_humidity;BME280_pressure;Samples;Min_cycle;Max_cycle;Signal;HPM_P1;HPM_P2
2021/07/13 00:00:47;;;;;;;96.15;73.47;;;;;;;;;;5047024;28;20444;-77
2021/07/13 00:03:13;;;;;;;101.00;73.45;;;;;;;;;;5044347;28;20049;-77
2021/07/13 00:05:40;;;;;;;112.68;75.13;;;;;;;;;;5042690;28;21002;-77
2021/07/13 00:08:07;;;;;;;109.28;74.50;;;;;;;;;;5047015;28;20051;-77
2021/07/13 00:10:35;;;;;;;105.05;75.82;;;;;;;;;;5046090;28;20408;-77
2021/07/13 00:13:01;;;;;;;95.18;69.38;;;;;;;;;;5046874;28;20076;-77
2021/07/13 00:15:32;;;;;;;104.80;73.72;;;;;;;;;;5044667;28;20503;-77
2021/07/13 00:17:58;;;;;;;119.78;78.72;;;;;;;;;;5048041;28;20052;-77
2021/07/13 00:20:25;;;;;;;103.40;73.00;;;;;;;;;;5044519;28;20542;-77
2021/07/13 00:22:52;;;;;;;126.55;79.35;;;;;;;;;;5046437;28;20041;-77
2021/07/13 00:25:19;;;;;;;137.75;81.50;;;;;;;;;;5043312;28;20045;-77
2021/07/13 00:27:46;;;;;;;133.82;78.32;;;;;;;;;;5048397;28;20045;-77
2021/07/13 00:30:13;;;;;;;129.05;73.40;;;;;;;;;;5047469;28;20048;-77
2021/07/13 00:32:39;;;;;;;127.32;70.53;;;;;;;;;;5047910;28;20075;-77
2021/07/13 00:35:06;;;;;;;137.70;73.40;;;;;;;;;;5042165;28;20423;-77
2021/07/13 00:37:32;;;;;;;163.95;76.82;;;;;;;;;;5043565;28;20076;-77
2021/07/13 00:39:59;;;;;;;142.98;74.45;;;;;;;;;;5046982;28;20440;-77
2021/07/13 00:42:25;;;;;;;152.75;76.05;;;;;;;;;;5043774;28;20053;-77
2021/07/13 00:44:51;;;;;;;149.38;73.82;;;;;;;;;;5038753;28;20068;-77
2021/07/13 00:47:20;;;;;;;133.35;73.45;;;;;;;;;;5044728;28;20092;-77
2021/07/13 00:49:46;;;;;;;147.57;68.68;;;;;;;;;;5042068;28;20041;-77
2021/07/13 00:52:13;;;;;;;135.13;63.10;;;;;;;;;;5043320;28;20053;-77
2021/07/13 00:54:41;;;;;;;120.13;62.05;;;;;;;;;;5041225;28;20044;-77
2021/07/13 00:57:07;;;;;;;101.78;51.40;;;;;;;;;;5043499;28;20469;-77
2021/07/13 00:59:34;;;;;;;90.88;46.88;;;;;;;;;;5041047;28;20048;-77
2021/07/13 01:02:00;;;;;;;110.18;50.50;;;;;;;;;;5045112;28;20041;-77
2021/07/13 01:04:28;;;;;;;109.35;49.88;;;;;;;;;;5045169;28;20049;-77
2021/07/13 01:07:04;;;;;;;95.18;48.60;;;;;;;;;;5044531;28;20045;-77
2021/07/13 01:09:37;;;;;;;90.57;45.72;;;;;;;;;;5044260;28;20057;-77
2021/07/13 01:12:09;;;;;;;99.55;46.08;;;;;;;;;;5025639;28;20053;-77
2021/07/13 01:14:38;;;;;;;100.85;46.90;;;;;;;;;;5044874;28;20068;-77
2021/07/13 01:17:10;;;;;;;95.25;46.88;;;;;;;;;;5042597;28;20053;-77
2021/07/13 01:19:55;;;;;;;103.47;49.20;;;;;;;;;;5044300;28;20051;-77
2021/07/13 01:22:23;;;;;;;89.57;46.90;;;;;;;;;;5042692;28;20445;-77
2021/07/13 01:24:50;;;;;;;89.85;46.42;;;;;;;;;;5043159;28;20369;-77
2021/07/13 01:27:27;;;;;;;91.55;48.00;;;;;;;;;;5042398;28;20125;-77
2021/07/13 01:29:54;;;;;;;87.32;44.90;;;;;;;;;;5038965;28;20056;-77
2021/07/13 01:32:22;;;;;;;84.38;45.47;;;;;;;;;;5044387;28;20049;-77
2021/07/13 01:34:54;;;;;;;89.00;45.83;;;;;;;;;;5043364;28;20051;-77
2021/07/13 01:37:20;;;;;;;105.57;49.42;;;;;;;;;;5044626;28;20115;-77
2021/07/13 01:39:49;;;;;;;90.40;45.58;;;;;;;;;;5043405;28;20546;-77
2021/07/13 01:42:15;;;;;;;103.05;45.63;;;;;;;;;;5037867;28;20129;-77
2021/07/13 01:44:42;;;;;;;100.25;45.95;;;;;;;;;;5043795;28;20036;-77
2021/07/13 01:47:09;;;;;;;100.45;46.38;;;;;;;;;;5045820;28;20118;-77
2021/07/13 01:49:36;;;;;;;103.35;45.83;;;;;;;;;;5044915;28;20058;-77
2021/07/13 01:52:03;;;;;;;107.82;47.58;;;;;;;;;;5040332;28;20502;-77
2021/07/13 01:54:34;;;;;;;105.93;45.90;;;;;;;;;;5035072;28;20053;-77
2021/07/13 01:57:01;;;;;;;96.65;44.88;;;;;;;;;;5044043;28;20047;-77
2021/07/13 01:59:28;;;;;;;109.30;47.13;;;;;;;;;;5044695;28;20063;-77
2021/07/13 02:01:57;;;;;;;98.47;46.22;;;;;;;;;;5043826;28;20452;-77
2021/07/13 02:04:27;;;;;;;97.50;43.45;;;;;;;;;;5036831;28;20053;-77
2021/07/13 02:06:58;;;;;;;94.70;42.73;;;;;;;;;;5044812;28;20068;-77
2021/07/13 02:09:24;;;;;;;101.90;43.47;;;;;;;;;;5043296;28;20651;-77
2021/07/13 02:11:51;;;;;;;89.03;40.65;;;;;;;;;;5037099;28;20045;-77
2021/07/13 02:14:17;;;;;;;95.63;43.95;;;;;;;;;;5042388;28;20053;-77
2021/07/13 02:16:43;;;;;;;105.97;45.63;;;;;;;;;;5043624;28;20488;-77
2021/07/13 02:19:11;;;;;;;112.40;46.70;;;;;;;;;;5043388;28;20087;-77
2021/07/13 02:21:38;;;;;;;113.45;47.22;;;;;;;;;;5043286;28;20123;-77
2021/07/13 02:24:04;;;;;;;118.60;47.42;;;;;;;;;;5043682;28;20057;-77
2021/07/13 02:26:47;;;;;;;113.85;47.20;;;;;;;;;;5046694;28;20080;-77
2021/07/13 02:29:29;;;;;;;127.15;49.47;;;;;;;;;;5042999;28;20052;-77
2021/07/13 02:31:58;;;;;;;122.65;48.50;;;;;;;;;;5041326;28;20049;-77
2021/07/13 02:34:27;;;;;;;96.63;45.47;;;;;;;;;;5041192;28;20067;-77
2021/07/13 02:36:53;;;;;;;100.28;44.65;;;;;;;;;;5045748;28;20368;-77
2021/07/13 02:39:20;;;;;;;108.68;45.42;;;;;;;;;;5041521;28;20067;-77
2021/07/13 02:41:48;;;;;;;88.82;41.85;;;;;;;;;;5041221;28;20393;-77
2021/07/13 02:44:15;;;;;;;86.03;41.42;;;;;;;;;;5045676;28;20072;-77
2021/07/13 02:46:44;;;;;;;101.28;42.17;;;;;;;;;;5041986;28;20519;-77
2021/07/13 02:49:14;;;;;;;97.00;40.90;;;;;;;;;;5043056;28;20391;-77
2021/07/13 02:51:41;;;;;;;92.43;40.97;;;;;;;;;;5040727;28;20095;-77
2021/07/13 02:54:09;;;;;;;80.63;39.63;;;;;;;;;;5044118;28;20132;-77
2021/07/13 02:56:37;;;;;;;83.60;39.38;;;;;;;;;;5042033;28;20052;-77
2021/07/13 02:59:04;;;;;;;83.93;40.28;;;;;;;;;;5039806;28;20049;-77
2021/07/13 03:01:32;;;;;;;82.97;40.33;;;;;;;;;;5041828;28;20041;-77
2021/07/13 03:03:58;;;;;;;78.93;39.30;;;;;;;;;;5045396;28;20056;-77
2021/07/13 03:06:25;;;;;;;90.47;42.10;;;;;;;;;;5041867;28;20049;-77
2021/07/13 03:08:51;;;;;;;98.65;41.92;;;;;;;;;;5041792;28;20094;-77
2021/07/13 03:11:18;;;;;;;87.72;42.17;;;;;;;;;;5040725;28;20126;-77
2021/07/13 03:13:45;;;;;;;81.95;40.28;;;;;;;;;;5045925;28;20139;-77
2021/07/13 03:16:12;;;;;;;81.07;40.63;;;;;;;;;;5043233;28;20049;-77
2021/07/13 03:18:38;;;;;;;98.82;43.88;;;;;;;;;;5041514;28;20114;-77
2021/07/13 03:21:06;;;;;;;90.55;42.35;;;;;;;;;;5043919;28;20040;-77
2021/07/13 03:23:39;;;;;;;109.67;45.10;;;;;;;;;;5042899;28;20140;-77
2021/07/13 03:26:07;;;;;;;99.10;45.53;;;;;;;;;;5041576;28;20067;-77
2021/07/13 03:28:33;;;;;;;98.45;42.30;;;;;;;;;;5038752;28;20060;-77
2021/07/13 03:31:00;;;;;;;119.38;43.42;;;;;;;;;;5043291;28;20049;-77
2021/07/13 03:33:27;;;;;;;82.15;41.70;;;;;;;;;;5043313;28;20061;-77
2021/07/13 03:35:55;;;;;;;84.88;41.13;;;;;;;;;;5045715;28;20063;-77
2021/07/13 03:38:21;;;;;;;106.85;42.55;;;;;;;;;;5045138;28;20452;-77
2021/07/13 03:40:48;;;;;;;112.63;41.90;;;;;;;;;;5046615;28;20047;-77
2021/07/13 03:43:15;;;;;;;112.30;42.47;;;;;;;;;;5042618;28;20504;-77
2021/07/13 03:45:41;;;;;;;136.48;43.03;;;;;;;;;;5044508;28;20054;-77
2021/07/13 03:48:10;;;;;;;124.18;41.58;;;;;;;;;;5045698;28;20076;-77
2021/07/13 03:50:36;;;;;;;92.50;42.05;;;;;;;;;;5046142;28;20396;-77
2021/07/13 03:53:03;;;;;;;110.63;38.08;;;;;;;;;;5046932;28;20045;-77
2021/07/13 03:55:30;;;;;;;96.50;38.47;;;;;;;;;;5042607;28;20044;-77
2021/07/13 03:57:56;;;;;;;88.43;35.65;;;;;;;;;;5044592;28;20049;-77
2021/07/13 04:00:27;;;;;;;75.82;35.75;;;;;;;;;;5046698;28;20041;-77
2021/07/13 04:02:53;;;;;;;65.32;34.53;;;;;;;;;;5046762;28;20118;-77
2021/07/13 04:05:19;;;;;;;105.95;38.15;;;;;;;;;;5043781;28;20052;-77
2021/07/13 04:07:45;;;;;;;98.55;36.80;;;;;;;;;;5041660;28;20065;-77
2021/07/13 04:10:13;;;;;;;91.32;35.35;;;;;;;;;;5044204;28;20515;-77
2021/07/13 04:12:39;;;;;;;73.65;35.22;;;;;;;;;;5041637;28;20041;-77
2021/07/13 04:15:06;;;;;;;73.60;34.63;;;;;;;;;;5044945;28;20067;-77
2021/07/13 04:17:32;;;;;;;68.68;34.30;;;;;;;;;;5045971;28;20499;-77
2021/07/13 04:19:59;;;;;;;84.95;35.25;;;;;;;;;;5044061;28;20091;-77
2021/07/13 04:22:26;;;;;;;74.50;34.80;;;;;;;;;;5038120;28;20457;-77
2021/07/13 04:24:52;;;;;;;69.47;33.90;;;;;;;;;;5043823;28;20041;-77
2021/07/13 04:27:18;;;;;;;73.20;33.90;;;;;;;;;;5040846;28;20052;-77
2021/07/13 04:29:45;;;;;;;71.85;34.85;;;;;;;;;;5044101;28;20052;-77
2021/07/13 04:32:11;;;;;;;79.53;32.85;;;;;;;;;;5041154;28;20052;-77
2021/07/13 04:34:37;;;;;;;63.70;31.92;;;;;;;;;;5046529;28;20041;-77
2021/07/13 04:37:04;;;;;;;67.25;33.15;;;;;;;;;;5045587;28;20595;-77
2021/07/13 04:39:30;;;;;;;75.20;33.80;;;;;;;;;;5045651;28;20416;-77
2021/07/13 04:41:57;;;;;;;86.55;33.58;;;;;;;;;;5045218;28;20116;-77
2021/07/13 04:44:23;;;;;;;75.25;31.45;;;;;;;;;;5041447;28;20507;-77
2021/07/13 04:46:49;;;;;;;85.30;33.70;;;;;;;;;;5042636;28;20082;-77
2021/07/13 04:49:15;;;;;;;72.28;31.33;;;;;;;;;;5041857;28;20044;-77
2021/07/13 04:51:41;;;;;;;93.40;33.25;;;;;;;;;;5036779;28;20132;-77
2021/07/13 04:54:08;;;;;;;82.22;33.88;;;;;;;;;;5040404;28;20045;-77
2021/07/13 04:56:34;;;;;;;72.60;33.25;;;;;;;;;;5043229;28;20045;-77
2021/07/13 04:59:00;;;;;;;71.10;30.50;;;;;;;;;;5036816;28;20059;-77
2021/07/13 05:01:27;;;;;;;63.33;32.00;;;;;;;;;;5038703;28;20068;-77
2021/07/13 05:03:54;;;;;;;81.70;30.48;;;;;;;;;;5040775;28;20842;-77
2021/07/13 05:06:20;;;;;;;65.47;28.25;;;;;;;;;;5040169;28;20132;-77
2021/07/13 05:08:47;;;;;;;53.42;25.90;;;;;;;;;;5045135;28;20772;-76
2021/07/13 05:11:13;;;;;;;72.95;29.08;;;;;;;;;;5044833;28;20175;-77
2021/07/13 05:13:39;;;;;;;76.93;30.05;;;;;;;;;;5039817;28;20045;-77
2021/07/13 05:16:06;;;;;;;75.85;28.30;;;;;;;;;;5049817;28;20049;-77
2021/07/13 05:18:34;;;;;;;59.08;29.83;;;;;;;;;;5047546;28;20126;-77
2021/07/13 05:21:04;;;;;;;61.85;27.90;;;;;;;;;;5048436;28;20464;-77
2021/07/13 05:23:31;;;;;;;64.25;30.52;;;;;;;;;;5049213;28;20072;-78
2021/07/13 05:25:57;;;;;;;61.10;28.65;;;;;;;;;;5022577;28;20117;-77
2021/07/13 05:28:24;;;;;;;56.00;27.17;;;;;;;;;;5041490;28;20053;-77
2021/07/13 05:30:50;;;;;;;62.72;27.98;;;;;;;;;;5038477;28;20087;-76
2021/07/13 05:33:16;;;;;;;66.05;29.45;;;;;;;;;;5043778;28;20068;-76
2021/07/13 05:35:43;;;;;;;73.60;29.73;;;;;;;;;;5035983;28;20503;-77
2021/07/13 05:38:10;;;;;;;66.43;29.20;;;;;;;;;;5041224;28;20079;-77
2021/07/13 05:40:36;;;;;;;58.47;28.70;;;;;;;;;;5035751;28;20095;-74
2021/07/13 05:43:03;;;;;;;53.35;26.85;;;;;;;;;;5042219;28;20051;-75
2021/07/13 05:45:29;;;;;;;65.20;29.00;;;;;;;;;;5036737;28;20044;-75
2021/07/13 05:47:55;;;;;;;52.00;27.83;;;;;;;;;;5037943;28;20041;-75
2021/07/13 05:50:22;;;;;;;43.95;24.63;;;;;;;;;;5043582;28;20059;-75
2021/07/13 05:52:48;;;;;;;34.08;22.90;;;;;;;;;;5041438;28;20068;-75
2021/07/13 05:55:14;;;;;;;33.80;22.20;;;;;;;;;;5038242;28;20075;-76
2021/07/13 05:57:40;;;;;;;37.92;24.52;;;;;;;;;;5050746;28;20041;-76
2021/07/13 06:00:08;;;;;;;39.58;24.90;;;;;;;;;;5037223;28;20112;-75
2021/07/13 06:02:34;;;;;;;50.15;26.75;;;;;;;;;;5045514;28;20040;-75
2021/07/13 06:05:00;;;;;;;47.22;27.52;;;;;;;;;;5037546;28;20041;-76
2021/07/13 06:07:26;;;;;;;54.75;29.35;;;;;;;;;;5040133;28;20117;-76
2021/07/13 06:09:56;;;;;;;57.60;29.25;;;;;;;;;;5039832;28;20052;-76
2021/07/13 06:12:22;;;;;;;55.83;28.05;;;;;;;;;;5044063;28;20385;-76
2021/07/13 06:14:49;;;;;;;56.50;29.75;;;;;;;;;;5041663;28;20041;-76
2021/07/13 06:17:15;;;;;;;63.67;30.55;;;;;;;;;;5034410;28;20183;-78
2021/07/13 06:19:41;;;;;;;76.28;32.38;;;;;;;;;;5040422;28;20044;-74
2021/07/13 06:22:08;;;;;;;94.97;36.00;;;;;;;;;;5038282;28;20048;-74
2021/07/13 06:24:34;;;;;;;81.07;34.72;;;;;;;;;;5031286;28;20051;-74
2021/07/13 06:27:01;;;;;;;69.47;32.83;;;;;;;;;;5034087;28;20063;-74
2021/07/13 06:29:27;;;;;;;78.07;35.08;;;;;;;;;;5041518;28;20048;-74
2021/07/13 06:31:53;;;;;;;68.03;32.80;;;;;;;;;;5044617;28;20041;-74
2021/07/13 06:34:19;;;;;;;78.07;34.42;;;;;;;;;;5042167;28;20374;-74
2021/07/13 06:36:46;;;;;;;79.40;35.33;;;;;;;;;;5036097;28;20091;-74
2021/07/13 06:39:12;;;;;;;75.28;34.95;;;;;;;;;;5040039;28;20047;-74
2021/07/13 06:41:39;;;;;;;75.50;34.60;;;;;;;;;;5042727;28;20440;-74
2021/07/13 06:44:05;;;;;;;86.82;36.78;;;;;;;;;;5043603;28;20564;-74
2021/07/13 06:46:33;;;;;;;72.32;33.83;;;;;;;;;;5042605;28;20185;-74
2021/07/13 06:49:01;;;;;;;67.50;33.50;;;;;;;;;;5040921;28;20098;-74
2021/07/13 06:51:27;;;;;;;73.72;34.90;;;;;;;;;;5041743;28;20064;-74
2021/07/13 06:53:53;;;;;;;77.60;35.65;;;;;;;;;;5045851;28;20052;-76
2021/07/13 06:56:20;;;;;;;64.65;34.38;;;;;;;;;;5038617;28;20037;-76
2021/07/13 06:58:46;;;;;;;57.05;30.45;;;;;;;;;;5037921;28;20354;-76
2021/07/13 07:01:12;;;;;;;68.53;30.63;;;;;;;;;;5044717;28;20042;-76
2021/07/13 07:03:38;;;;;;;59.58;32.55;;;;;;;;;;5036276;28;20118;-76
2021/07/13 07:06:05;;;;;;;57.92;30.70;;;;;;;;;;5041964;28;20082;-76
2021/07/13 07:08:31;;;;;;;59.58;29.77;;;;;;;;;;5037751;28;20060;-76
2021/07/13 07:10:57;;;;;;;51.30;29.55;;;;;;;;;;5046365;28;20079;-76
2021/07/13 07:13:24;;;;;;;46.38;26.63;;;;;;;;;;5050724;28;20174;-75
2021/07/13 07:15:50;;;;;;;42.08;26.48;;;;;;;;;;5045060;28;20040;-75
2021/07/13 07:18:16;;;;;;;46.05;27.30;;;;;;;;;;5046366;28;20519;-75
2021/07/13 07:20:42;;;;;;;45.13;26.67;;;;;;;;;;5040300;28;20043;-75
2021/07/13 07:23:09;;;;;;;47.25;27.92;;;;;;;;;;5037645;28;20060;-75
2021/07/13 07:25:35;;;;;;;49.35;29.00;;;;;;;;;;5039984;28;20149;-75
2021/07/13 07:28:02;;;;;;;52.10;28.73;;;;;;;;;;5045523;28;20045;-75
2021/07/13 07:30:29;;;;;;;44.75;27.60;;;;;;;;;;5043802;28;20041;-75
2021/07/13 07:32:56;;;;;;;49.08;27.35;;;;;;;;;;5042252;28;20056;-75
2021/07/13 07:35:22;;;;;;;51.33;27.92;;;;;;;;;;5039849;28;20060;-75
2021/07/13 07:37:49;;;;;;;48.35;28.98;;;;;;;;;;5047035;28;20049;-75
2021/07/13 07:40:18;;;;;;;48.60;27.88;;;;;;;;;;5046395;28;20045;-76
2021/07/13 07:42:46;;;;;;;47.13;28.90;;;;;;;;;;5051862;28;20033;-75
2021/07/13 07:45:12;;;;;;;51.95;29.42;;;;;;;;;;5049763;28;20056;-75
2021/07/13 07:47:39;;;;;;;56.88;32.10;;;;;;;;;;5050664;28;20123;-75
2021/07/13 07:50:05;;;;;;;55.90;31.08;;;;;;;;;;5046516;28;20083;-75
2021/07/13 07:52:32;;;;;;;53.70;30.10;;;;;;;;;;5043210;28;20037;-75
2021/07/13 07:54:58;;;;;;;54.45;32.35;;;;;;;;;;5045369;28;20073;-75
2021/07/13 07:57:25;;;;;;;53.35;29.48;;;;;;;;;;5047656;28;20098;-75
2021/07/13 07:59:51;;;;;;;53.15;30.08;;;;;;;;;;5047305;28;20136;-75
2021/07/13 08:02:17;;;;;;;47.28;29.02;;;;;;;;;;5044497;28;20041;-75
2021/07/13 08:04:43;;;;;;;44.05;27.10;;;;;;;;;;5044154;28;20464;-76
2021/07/13 08:07:10;;;;;;;44.35;27.70;;;;;;;;;;5040944;28;20110;-75
2021/07/13 08:09:36;;;;;;;43.55;27.40;;;;;;;;;;5047127;28;20506;-75
2021/07/13 08:12:02;;;;;;;45.33;29.30;;;;;;;;;;5046369;28;20571;-75
2021/07/13 08:14:29;;;;;;;49.53;30.15;;;;;;;;;;5043774;28;20496;-75
2021/07/13 08:16:56;;;;;;;55.67;32.78;;;;;;;;;;5039436;28;20320;-75
2021/07/13 08:19:22;;;;;;;52.95;30.77;;;;;;;;;;5046027;28;20041;-75
2021/07/13 08:21:49;;;;;;;58.22;31.35;;;;;;;;;;5043226;28;20132;-74
2021/07/13 08:24:16;;;;;;;46.80;30.25;;;;;;;;;;5041914;28;20068;-75
2021/07/13 08:26:43;;;;;;;50.35;29.05;;;;;;;;;;5049277;28;20195;-75
2021/07/13 08:29:09;;;;;;;54.13;31.35;;;;;;;;;;5044167;28;20533;-75
2021/07/13 08:31:36;;;;;;;52.38;30.98;;;;;;;;;;5048112;28;20510;-75
2021/07/13 08:34:02;;;;;;;52.05;31.13;;;;;;;;;;5040954;28;20076;-75
2021/07/13 08:36:28;;;;;;;49.60;30.35;;;;;;;;;;5021648;28;20446;-75
2021/07/13 08:38:55;;;;;;;55.97;30.40;;;;;;;;;;5040739;28;20048;-75
2021/07/13 08:41:21;;;;;;;50.15;30.33;;;;;;;;;;5046812;28;20128;-75
2021/07/13 08:43:48;;;;;;;47.55;29.85;;;;;;;;;;5043757;28;20036;-77
2021/07/13 08:46:15;;;;;;;46.42;30.23;;;;;;;;;;5035613;28;20041;-76
2021/07/13 08:48:42;;;;;;;42.90;28.15;;;;;;;;;;5040532;28;20045;-76
2021/07/13 08:51:08;;;;;;;50.67;30.15;;;;;;;;;;5049889;28;20041;-76
2021/07/13 08:53:34;;;;;;;47.35;30.08;;;;;;;;;;5047714;28;20433;-76
2021/07/13 08:56:01;;;;;;;62.95;32.67;;;;;;;;;;5046648;28;20060;-76
2021/07/13 08:58:27;;;;;;;61.08;32.65;;;;;;;;;;5046892;28;20412;-76
2021/07/13 09:00:54;;;;;;;53.67;31.05;;;;;;;;;;5051751;28;20137;-77
2021/07/13 09:03:21;;;;;;;45.97;30.85;;;;;;;;;;5049257;28;20454;-76
2021/07/13 09:05:52;;;;;;;46.95;30.38;;;;;;;;;;5051249;28;20227;-76
2021/07/13 09:08:18;;;;;;;44.20;29.23;;;;;;;;;;5034655;28;20140;-76
2021/07/13 09:10:59;;;;;;;49.40;30.10;;;;;;;;;;5036612;28;20041;-76
2021/07/13 09:13:27;;;;;;;51.83;30.23;;;;;;;;;;5034920;28;20076;-76
2021/07/13 09:15:55;;;;;;;48.58;30.52;;;;;;;;;;5043785;28;20044;-76
2021/07/13 09:18:29;;;;;;;50.05;31.02;;;;;;;;;;5044757;28;20068;-76
2021/07/13 09:21:05;;;;;;;54.53;34.47;;;;;;;;;;5038766;28;20323;-76
2021/07/13 09:23:31;;;;;;;51.05;31.77;;;;;;;;;;5035390;28;20029;-76
2021/07/13 09:25:57;;;;;;;55.15;32.35;;;;;;;;;;5044603;28;20036;-76
2021/07/13 09:28:25;;;;;;;53.72;32.00;;;;;;;;;;5041164;28;20045;-76
2021/07/13 09:30:53;;;;;;;47.33;31.48;;;;;;;;;;5038585;28;20045;-76
2021/07/13 09:33:22;;;;;;;55.33;33.83;;;;;;;;;;5037465;28;20125;-76
2021/07/13 09:36:00;;;;;;;54.70;33.92;;;;;;;;;;5039047;28;20091;-76
2021/07/13 09:38:27;;;;;;;48.38;32.88;;;;;;;;;;5041926;28;20049;-76
2021/07/13 09:41:01;;;;;;;51.97;35.20;;;;;;;;;;5039733;28;20045;-78
2021/07/13 09:43:27;;;;;;;57.13;37.03;;;;;;;;;;5046041;28;20431;-78
2021/07/13 09:45:53;;;;;;;60.17;38.47;;;;;;;;;;5044026;28;20199;-78
2021/07/13 09:48:21;;;;;;;51.28;33.67;;;;;;;;;;5041206;28;20057;-78
2021/07/13 09:50:49;;;;;;;55.20;34.88;;;;;;;;;;5045447;28;20036;-78
2021/07/13 09:53:17;;;;;;;56.80;36.85;;;;;;;;;;5049763;28;20049;-78
2021/07/13 09:55:44;;;;;;;59.42;35.83;;;;;;;;;;5048390;28;20044;-78
2021/07/13 09:58:17;;;;;;;53.58;34.65;;;;;;;;;;5046246;28;20095;-78
2021/07/13 10:00:43;;;;;;;;;;;;;;;;;;5043209;28;20481;-79
2021/07/13 10:03:12;;;;;;;51.55;33.92;;;;;;;;;;5041557;28;19924;-79
2021/07/13 10:05:39;;;;;;;56.30;37.33;;;;;;;;;;5046034;28;20114;-78
2021/07/13 10:08:06;;;;;;;53.90;37.15;;;;;;;;;;5045019;28;20078;-76
2021/07/13 10:10:33;;;;;;;49.95;33.88;;;;;;;;;;5046395;28;20049;-79
2021/07/13 10:12:59;;;;;;;50.35;35.05;;;;;;;;;;5042305;28;20065;-79
2021/07/13 10:15:27;;;;;;;45.95;30.77;;;;;;;;;;5046310;28;20089;-78
2021/07/13 10:17:53;;;;;;;45.90;30.45;;;;;;;;;;5045470;28;20029;-76
2021/07/13 10:20:22;;;;;;;49.90;32.40;;;;;;;;;;5044003;28;20410;-76
2021/07/13 10:22:49;;;;;;;51.50;30.70;;;;;;;;;;5045432;28;20064;-77
2021/07/13 10:25:16;;;;;;;47.72;29.27;;;;;;;;;;5045644;28;20558;-77
2021/07/13 10:27:48;;;;;;;52.92;31.17;;;;;;;;;;5042623;28;20388;-77
2021/07/13 10:30:36;;;;;;;54.15;33.03;;;;;;;;;;5044919;28;20067;-76
2021/07/13 10:33:02;;;;;;;54.33;32.42;;;;;;;;;;5039455;28;20056;-75
2021/07/13 10:35:29;;;;;;;53.05;31.10;;;;;;;;;;5043725;28;20033;-75
2021/07/13 10:37:58;;;;;;;53.53;32.20;;;;;;;;;;5045765;28;20045;-75
2021/07/13 10:40:25;;;;;;;60.83;34.90;;;;;;;;;;5038445;28;20056;-76
2021/07/13 10:42:58;;;;;;;53.40;31.60;;;;;;;;;;5043700;28;20128;-76
2021/07/13 10:45:26;;;;;;;;;;;;;;;;;;5045021;28;20045;-76
2021/07/13 10:48:06;;;;;;;46.75;31.10;;;;;;;;;;5041101;28;19931;-76
2021/07/13 10:50:43;;;;;;;45.38;27.55;;;;;;;;;;5039959;28;20032;-76
2021/07/13 10:53:16;;;;;;;54.28;32.03;;;;;;;;;;5040318;28;20041;-76
2021/07/13 10:55:43;;;;;;;47.63;31.77;;;;;;;;;;5043116;28;20045;-76
2021/07/13 10:58:11;;;;;;;49.83;32.03;;;;;;;;;;5045611;28;20033;-77
2021/07/13 11:00:54;;;;;;;52.10;32.58;;;;;;;;;;5038368;28;20081;-77
2021/07/13 11:03:49;;;;;;;50.58;32.65;;;;;;;;;;5039684;28;20037;-76
2021/07/13 11:06:17;;;;;;;45.63;29.58;;;;;;;;;;5043648;28;20037;-77
2021/07/13 11:08:44;;;;;;;53.55;32.88;;;;;;;;;;5043654;28;20102;-77
2021/07/13 11:11:15;;;;;;;48.70;31.10;;;;;;;;;;5039755;28;20132;-77
2021/07/13 11:13:54;;;;;;;52.13;33.78;;;;;;;;;;5038291;28;20059;-77
2021/07/13 11:16:22;;;;;;;50.58;32.80;;;;;;;;;;5038012;28;20052;-77
2021/07/13 11:18:48;;;;;;;51.05;33.78;;;;;;;;;;5037644;28;20045;-77
2021/07/13 11:21:15;;;;;;;49.88;33.78;;;;;;;;;;5037540;28;20118;-77
2021/07/13 11:23:43;;;;;;;54.58;34.78;;;;;;;;;;5040678;28;20817;-77
2021/07/13 11:26:10;;;;;;;56.28;36.60;;;;;;;;;;5042181;28;20037;-77
2021/07/13 11:28:37;;;;;;;57.33;35.63;;;;;;;;;;5042959;28;20664;-77
2021/07/13 11:31:04;;;;;;;56.53;36.13;;;;;;;;;;5038616;28;20048;-77
2021/07/13 11:33:31;;;;;;;57.63;35.15;;;;;;;;;;5040192;28;20048;-76
2021/07/13 11:35:59;;;;;;;59.55;36.10;;;;;;;;;;5041690;28;20511;-77
2021/07/13 11:38:27;;;;;;;55.95;33.40;;;;;;;;;;5038082;28;20049;-77
2021/07/13 11:41:14;;;;;;;56.78;33.33;;;;;;;;;;5039641;28;20460;-77
2021/07/13 11:43:41;;;;;;;53.60;33.15;;;;;;;;;;5040311;28;20167;-77
2021/07/13 11:46:12;;;;;;;60.95;35.03;;;;;;;;;;5038804;28;20049;-77
2021/07/13 11:48:38;;;;;;;58.28;34.28;;;;;;;;;;5040045;28;20068;-77
2021/07/13 11:51:07;;;;;;;56.65;32.75;;;;;;;;;;5038647;28;20540;-77
2021/07/13 11:53:34;;;;;;;54.42;32.90;;;;;;;;;;5047861;28;20249;-77
2021/07/13 11:56:01;;;;;;;58.83;34.30;;;;;;;;;;5042341;28;20439;-77
2021/07/13 11:58:31;;;;;;;51.58;32.05;;;;;;;;;;5048388;28;20226;-77
2021/07/13 12:01:14;;;;;;;55.47;33.10;;;;;;;;;;5051180;28;20037;-77
2021/07/13 12:03:41;;;;;;;52.95;31.20;;;;;;;;;;5041315;28;20064;-77
2021/07/13 12:06:15;;;;;;;46.72;31.92;;;;;;;;;;5047924;28;20124;-77
2021/07/13 12:08:41;;;;;;;57.85;36.05;;;;;;;;;;5053064;28;20104;-77
2021/07/13 12:11:08;;;;;;;63.17;36.40;;;;;;;;;;5051102;28;20404;-77
2021/07/13 12:13:37;;;;;;;52.45;34.40;;;;;;;;;;5047023;28;20052;-77
2021/07/13 12:16:22;;;;;;;58.80;34.30;;;;;;;;;;5049041;28;20111;-77
2021/07/13 12:18:50;;;;;;;54.28;34.50;;;;;;;;;;5052903;28;20167;-77
2021/07/13 12:21:17;;;;;;;46.20;32.28;;;;;;;;;;5051509;28;20040;-78
2021/07/13 12:23:44;;;;;;;54.05;34.80;;;;;;;;;;5051545;28;20089;-77
2021/07/13 12:26:28;;;;;;;52.78;32.92;;;;;;;;;;5051087;28;20048;-77
2021/07/13 12:29:13;;;;;;;46.65;31.67;;;;;;;;;;5051821;28;20041;-77
2021/07/13 12:31:39;;;;;;;47.58;30.20;;;;;;;;;;5048088;28;20136;-77
2021/07/13 12:34:15;;;;;;;41.50;30.75;;;;;;;;;;5051241;28;20060;-77
2021/07/13 12:36:41;;;;;;;40.67;29.25;;;;;;;;;;5047236;28;20053;-77
2021/07/13 12:39:16;;;;;;;39.78;30.38;;;;;;;;;;5048563;28;20071;-77
2021/07/13 12:41:44;;;;;;;39.03;29.67;;;;;;;;;;5051489;28;20053;-77
2021/07/13 12:44:26;;;;;;;39.55;28.70;;;;;;;;;;5052500;28;20044;-77
2021/07/13 12:46:52;;;;;;;39.22;30.02;;;;;;;;;;5050852;28;20560;-78
2021/07/13 12:49:19;;;;;;;38.00;29.67;;;;;;;;;;5038998;28;20076;-77
2021/07/13 12:51:45;;;;;;;41.15;30.10;;;;;;;;;;5047941;28;20055;-78
2021/07/13 12:54:11;;;;;;;38.47;29.95;;;;;;;;;;5051995;28;20103;-78
2021/07/13 12:56:38;;;;;;;39.20;30.50;;;;;;;;;;5044547;28;20037;-78
2021/07/13 12:59:05;;;;;;;41.08;29.88;;;;;;;;;;5048581;28;20060;-78
2021/07/13 13:01:31;;;;;;;44.42;31.52;;;;;;;;;;5049720;28;20090;-84
2021/07/13 13:04:14;;;;;;;42.22;28.98;;;;;;;;;;5042528;28;20040;-77
2021/07/13 13:06:42;;;;;;;39.53;28.67;;;;;;;;;;5044367;28;20121;-86
2021/07/13 13:09:11;;;;;;;44.72;28.95;;;;;;;;;;5042972;28;20053;-78
2021/07/13 13:11:39;;;;;;;37.55;27.73;;;;;;;;;;5049961;28;20086;-80
2021/07/13 13:14:08;;;;;;;38.75;28.63;;;;;;;;;;5044602;28;20448;-78
2021/07/13 13:16:36;;;;;;;31.98;25.98;;;;;;;;;;5050040;28;20100;-78
2021/07/13 13:19:03;;;;;;;38.47;24.80;;;;;;;;;;5051746;28;20041;-78
2021/07/13 13:21:30;;;;;;;32.63;24.90;;;;;;;;;;5049019;28;20083;-78
2021/07/13 13:23:58;;;;;;;35.90;25.00;;;;;;;;;;5041667;28;20076;-77
2021/07/13 13:26:25;;;;;;;33.90;24.55;;;;;;;;;;5044438;28;20753;-78
2021/07/13 13:28:52;;;;;;;31.08;24.25;;;;;;;;;;5051352;28;20460;-78
2021/07/13 13:31:19;;;;;;;34.53;26.08;;;;;;;;;;5048031;28;20048;-77
2021/07/13 13:33:51;;;;;;;35.70;24.85;;;;;;;;;;5038825;28;20132;-82
2021/07/13 13:41:13;;;;;;;42.88;26.10;;;;;;;;;;5043608;28;20058;-77
2021/07/13 13:43:40;;;;;;;34.38;25.98;;;;;;;;;;5043129;28;20392;-77
2021/07/13 13:46:06;;;;;;;45.30;27.08;;;;;;;;;;5040756;28;20029;-77
2021/07/13 13:48:32;;;;;;;39.97;27.73;;;;;;;;;;5040045;28;20416;-78
2021/07/13 13:50:59;;;;;;;45.17;27.88;;;;;;;;;;5048796;28;20057;-77
2021/07/13 13:53:25;;;;;;;42.53;27.60;;;;;;;;;;5042786;28;20075;-78
2021/07/13 13:55:51;;;;;;;42.03;27.42;;;;;;;;;;5037124;28;20041;-78
2021/07/13 13:58:17;;;;;;;36.92;25.20;;;;;;;;;;5049980;28;20067;-78
2021/07/13 14:00:44;;;;;;;37.13;26.02;;;;;;;;;;5036124;28;20057;-78
2021/07/13 14:03:10;;;;;;;35.42;25.80;;;;;;;;;;5043436;28;20095;-78
2021/07/13 14:05:36;;;;;;;30.90;22.98;;;;;;;;;;5042378;28;20494;-78
2021/07/13 14:08:03;;;;;;;28.02;22.83;;;;;;;;;;5045514;28;20067;-78
2021/07/13 14:10:30;;;;;;;35.85;24.77;;;;;;;;;;5047319;28;20468;-78
2021/07/13 14:12:56;;;;;;;29.73;22.95;;;;;;;;;;5039030;28;20071;-78
2021/07/13 14:15:22;;;;;;;34.40;23.42;;;;;;;;;;5046923;28;20442;-78
2021/07/13 14:17:49;;;;;;;37.97;27.02;;;;;;;;;;5040600;28;20100;-78
2021/07/13 14:20:16;;;;;;;33.13;24.60;;;;;;;;;;5036274;28;20033;-78
2021/07/13 14:22:44;;;;;;;35.65;26.55;;;;;;;;;;5039073;28;20102;-78
2021/07/13 14:25:12;;;;;;;33.85;26.20;;;;;;;;;;5041786;28;20083;-78